createdAt,value
2022-09-07T00:05:15.908Z,4.00
2022-09-07T00:11:58.326Z,4.20
2022-09-07T00:18:45.218Z,2.90
2022-09-07T00:25:31.777Z,2.45
2022-09-07T00:32:14.471Z,2.58
2022-09-07T00:38:57.100Z,2.67
2022-09-07T00:45:39.514Z,3.13
2022-09-07T00:52:23.375Z,2.40
2022-09-07T00:59:06.926Z,2.60
2022-09-07T01:06:04.275Z,2.35
2022-09-07T01:12:46.663Z,2.20
2022-09-07T01:19:49.169Z,2.60
2022-09-07T01:26:43.779Z,2.72
2022-09-07T01:33:56.458Z,2.70
2022-09-07T01:40:54.560Z,2.65
2022-09-07T01:47:47.328Z,2.83
2022-09-07T01:54:44.346Z,2.95
2022-09-07T02:01:49.870Z,2.95
2022-09-07T02:08:37.576Z,3.17
2022-09-07T02:15:26.823Z,3.17
2022-09-07T02:22:13.956Z,3.00
2022-09-07T02:28:57.182Z,3.10
2022-09-07T02:35:39.836Z,3.42
2022-09-07T02:42:22.463Z,3.03
2022-09-07T02:49:14.120Z,3.35
2022-09-07T02:56:17.829Z,3.17
2022-09-07T03:03:19.322Z,3.30
2022-09-07T03:10:04.368Z,3.35
2022-09-07T03:16:49.485Z,3.20
2022-09-07T03:23:31.946Z,3.78
2022-09-07T03:30:14.841Z,3.25
2022-09-07T03:36:57.309Z,3.40
2022-09-07T03:43:39.702Z,3.42
2022-09-07T03:50:22.085Z,3.75
2022-09-07T03:57:04.505Z,3.88
2022-09-07T04:03:48.114Z,3.13
2022-09-07T04:10:31.064Z,3.35
2022-09-07T04:17:13.507Z,3.85
2022-09-07T04:23:56.258Z,3.83
2022-09-07T04:30:38.671Z,3.67
2022-09-07T04:37:21.101Z,3.38
2022-09-07T04:44:04.680Z,4.10
2022-09-07T04:50:47.062Z,3.78
2022-09-07T04:57:29.484Z,3.67
2022-09-07T05:04:11.932Z,4.65
2022-09-07T05:10:56.678Z,5.15
2022-09-07T05:17:39.082Z,5.10
2022-09-07T05:24:21.516Z,4.90
2022-09-07T05:37:58.923Z,4.40
2022-09-07T05:51:28.678Z,5.88
2022-09-07T05:58:11.131Z,4.88
2022-09-07T06:04:53.512Z,5.10
2022-09-07T06:11:36.714Z,4.93
2022-09-07T06:18:19.140Z,4.18
2022-09-07T06:25:01.554Z,3.13
2022-09-07T06:38:47.119Z,2.85
2022-09-07T06:45:29.595Z,3.55
2022-09-07T06:52:12.004Z,3.10
2022-09-07T06:58:55.262Z,3.00
2022-09-07T07:05:37.702Z,3.10
2022-09-07T07:19:01.404Z,2.65
2022-09-07T07:25:44.060Z,3.22
2022-09-07T07:32:26.576Z,3.47
2022-09-07T07:46:13.996Z,3.30
2022-09-07T07:59:58.881Z,3.00
2022-09-07T08:06:44.663Z,3.72
2022-09-07T08:13:31.142Z,2.85
2022-09-07T08:20:14.138Z,3.10
2022-09-07T08:26:56.676Z,2.90
2022-09-07T08:33:39.696Z,2.53
2022-09-07T08:40:21.972Z,2.83
2022-09-07T08:47:27.763Z,2.95
2022-09-07T08:54:16.302Z,2.58
2022-09-07T09:08:15.789Z,2.60
2022-09-07T09:15:39.560Z,2.38
2022-09-07T09:22:26.445Z,2.80
2022-09-07T09:29:19.112Z,2.72
2022-09-07T09:36:01.881Z,2.80
2022-09-07T09:42:44.679Z,2.90
2022-09-07T09:49:34.942Z,2.80
2022-09-07T09:56:18.013Z,2.28
2022-09-07T10:10:18.412Z,2.45
2022-09-07T10:17:02.108Z,2.50
2022-09-07T10:23:44.811Z,2.80
2022-09-07T10:30:27.685Z,2.90
2022-09-07T10:37:13.490Z,3.53
2022-09-07T10:43:57.020Z,3.13
2022-09-07T10:50:44.804Z,3.33
2022-09-07T10:57:30.230Z,3.08
2022-09-07T11:04:30.456Z,2.83
2022-09-07T11:11:15.449Z,3.00
2022-09-07T11:18:27.196Z,2.80
2022-09-07T11:25:30.923Z,2.60
2022-09-07T11:32:21.897Z,3.08
2022-09-07T11:39:26.903Z,2.95
2022-09-07T11:46:43.173Z,2.88
2022-09-07T11:53:36.972Z,3.08
2022-09-07T12:00:50.679Z,2.90
2022-09-07T12:08:11.503Z,2.55
2022-09-07T12:15:20.457Z,2.25
2022-09-07T12:22:02.860Z,2.55
2022-09-07T12:28:45.103Z,2.53
2022-09-07T12:35:33.306Z,2.13
2022-09-07T12:42:38.687Z,2.40
2022-09-07T12:49:28.862Z,2.45
2022-09-07T12:57:29.145Z,2.28
2022-09-07T13:04:10.318Z,2.42
2022-09-07T13:10:52.757Z,2.28
2022-09-07T13:17:35.270Z,2.00
2022-09-07T13:24:48.771Z,2.17
2022-09-07T13:32:05.377Z,2.00
2022-09-07T13:38:50.210Z,1.95
2022-09-07T13:45:53.378Z,1.83
2022-09-07T13:52:59.390Z,2.22
2022-09-07T13:59:42.408Z,2.22
2022-09-07T14:06:33.055Z,1.88
2022-09-07T14:13:15.451Z,2.33
2022-09-07T14:19:59.508Z,2.00
2022-09-07T14:26:47.066Z,2.40
2022-09-07T14:33:31.034Z,1.90
2022-09-07T14:40:19.382Z,2.15
2022-09-07T14:47:18.959Z,2.63
2022-09-07T14:54:04.299Z,2.10
2022-09-07T15:08:19.908Z,2.70
2022-09-07T15:15:29.708Z,2.00
2022-09-07T15:22:13.371Z,2.38
2022-09-07T15:29:11.786Z,2.03
2022-09-07T15:35:54.961Z,4.10
2022-09-07T15:49:44.718Z,2.20
2022-09-07T15:56:31.711Z,1.88
2022-09-07T16:03:14.772Z,2.22
2022-09-07T16:09:57.643Z,2.00
2022-09-07T16:23:45.314Z,2.70
2022-09-07T16:30:27.888Z,2.28
2022-09-07T16:37:15.862Z,1.95
2022-09-07T16:43:58.776Z,1.83
2022-09-07T16:50:55.121Z,2.33
2022-09-07T17:04:44.293Z,2.25
2022-09-07T17:11:35.371Z,2.08
2022-09-07T17:18:17.945Z,1.80
2022-09-07T17:25:00.409Z,2.10
2022-09-07T17:45:48.317Z,2.13
2022-09-07T17:52:31.147Z,1.95
2022-09-07T18:06:15.879Z,2.30
2022-09-07T18:12:58.188Z,2.30
2022-09-07T18:19:40.523Z,2.20
2022-09-07T18:26:24.297Z,1.80
2022-09-07T18:33:06.692Z,1.73
2022-09-07T18:39:49.336Z,2.10
2022-09-07T18:46:32.044Z,2.15
2022-09-07T18:53:16.710Z,1.90
2022-09-07T18:59:59.363Z,2.25
2022-09-07T19:06:41.843Z,2.20
2022-09-07T19:13:24.213Z,2.00
2022-09-07T19:20:06.949Z,2.35
2022-09-07T19:26:49.866Z,2.03
2022-09-07T19:33:33.655Z,1.65
2022-09-07T19:40:19.227Z,1.80
2022-09-07T19:47:01.913Z,1.58
2022-09-07T19:53:46.531Z,1.77
2022-09-07T20:00:29.081Z,1.98
2022-09-07T20:07:13.182Z,2.00
2022-09-07T20:13:57.107Z,1.70
2022-09-07T20:20:39.439Z,1.65
2022-09-07T20:27:22.024Z,2.13
2022-09-07T20:34:04.470Z,1.80
2022-09-07T20:40:51.985Z,2.00
2022-09-07T20:47:34.695Z,2.03
2022-09-07T20:54:17.158Z,1.95
2022-09-07T21:00:59.844Z,1.98
2022-09-07T21:07:42.185Z,2.45
2022-09-07T21:14:24.888Z,1.95
2022-09-07T21:21:22.904Z,2.20
2022-09-07T21:28:05.174Z,2.58
2022-09-07T21:34:47.469Z,2.28
2022-09-07T21:41:30.320Z,2.10
2022-09-07T21:48:12.989Z,2.65
2022-09-07T21:54:55.412Z,2.65
2022-09-07T22:01:37.794Z,2.83
2022-09-07T22:08:20.644Z,3.05
2022-09-07T22:15:03.591Z,3.42
2022-09-07T22:21:45.967Z,3.17
2022-09-07T22:28:29.666Z,3.40
2022-09-07T22:35:11.947Z,3.17
2022-09-07T22:41:54.318Z,2.97
2022-09-07T22:48:37.129Z,3.38
2022-09-07T22:55:19.490Z,3.78
2022-09-07T23:02:02.628Z,2.97
2022-09-07T23:08:44.907Z,2.70
2022-09-07T23:15:27.400Z,3.22
2022-09-07T23:22:10.026Z,3.38
2022-09-07T23:28:53.907Z,3.10
2022-09-07T23:35:36.406Z,3.95
2022-09-07T23:42:18.797Z,4.47
2022-09-07T23:49:01.174Z,4.10
2022-09-07T23:55:43.588Z,3.78
